Selma, Ohio
Current Conditions -  °F | °C
As of 2:44 PM on Tuesday 21 Oct 2014 (Local Time) from KSGH Reporting Station
Overcast Overcast  
Wind Chill: 52°   Ceiling: 2700
Heat Index: 52°   Visibility: 8mi
Dew Point: 45°   Wind: 15mph
Humidity: 76%   Direction: 340°NNW
Pressure: 30.04"   Gusts: 22mph
Location:  39.8457°N, 83.6528°W
Report Text: KSGH 211844Z AUTO 34013G19KT 8SM SCT021 BKN027 OVC036 11/07 A3004 RMK AO2 BKN V SCT
Loading
Personal Weather Stations






























Interactive Weather Map
Tropical Storm Tracking
New forecast layout! Learn more

10-Day Weather Forecast

Advertisements
Track Severe Weather on mobile